KAXN/AXN METAR and TAF weather

Enter ICAO airport designator
Station Type Date Time Source
KAXN METAR 2022/05/25 00:53 UTC NOAA

KAXN 250053Z AUTO 10007KT 10SM FEW075 18/02 A3013 RMK AO2 SLP204 T01780022


Station Type Date Time Source
KAXN Decoded METAR 2022/05/25 00:53 UTC NOAA

CHANDLER FIELD, MN, United States (KAXN) 45-52N 095-24W 433M
May 24, 2022 - 08:53 PM EDT / 2022.05.25 0053 UTC
Wind: from the E (100 degrees) at 8 MPH (7 KT):0
Visibility: 10 mile(s):0
Sky conditions: mostly clear
Temperature: 64.0 F (17.8 C)
Dew Point: 36.0 F (2.2 C)
Relative Humidity: 35%
Pressure (altimeter): 30.13 in. Hg (1020 hPa)
ob: KAXN 250053Z AUTO 10007KT 10SM FEW075 18/02 A3013 RMK AO2 SLP204 T01780022
cycle: 1

Station Type Date Time Source
KAXN TAF 2022/05/24 18:22 UTC NOAA

TAF KAXN 241720Z 2418/2518 14009KT P6SM FEW070 SCT150
FM250600 11005KT P6SM BKN200
FM251200 09007KT 6SM -RA OVC045
FM251500 08012KT 6SM RA BR OVC030
FM251700 06012KT 6SM -RA BR OVC014

Example: see airport list